Time;durP1;ratioP1;P1;durP2;ratioP2;P2;SDS_P1;SDS_P2;PMS_P1;PMS_P2;Temp;Humidity;BMP_temperature;BMP_pressure;BME280_temperature;BME280_humidity;BME280_pressure;Samples;Min_cycle;Max_cycle;Signal;HPM_P1;HPM_P2
2021/07/21 00:01:21;;;;;;;19.40;10.90;;;;;;;15.80;80.48;102377.16;6098131;23;20030;-80
2021/07/21 00:03:46;;;;;;;19.63;11.05;;;;;;;15.81;80.30;102376.31;6098731;23;20010;-78
2021/07/21 00:06:13;;;;;;;19.58;10.63;;;;;;;15.82;80.06;102378.97;6097964;23;20040;-81
2021/07/21 00:08:38;;;;;;;21.38;11.70;;;;;;;15.85;80.05;102373.72;6098684;23;20434;-81
2021/07/21 00:13:48;;;;;;;19.38;10.77;;;;;;;15.87;79.84;102375.50;6098922;23;20025;-78
2021/07/21 00:16:16;;;;;;;17.75;10.35;;;;;;;15.92;79.83;102376.50;6098571;23;20006;-80
2021/07/21 00:22:05;;;;;;;19.70;11.60;;;;;;;15.77;80.39;102377.97;6113894;23;20344;-79
2021/07/21 00:24:31;;;;;;;21.75;11.05;;;;;;;15.69;80.66;102379.56;6128169;23;20093;-80
2021/07/21 00:26:56;;;;;;;23.60;11.70;;;;;;;15.61;81.17;102383.81;6128141;23;20025;-80
2021/07/21 00:29:21;;;;;;;21.27;12.00;;;;;;;15.51;81.29;102382.75;6128578;23;20465;-81
2021/07/21 00:31:47;;;;;;;22.08;11.68;;;;;;;15.44;81.47;102381.72;6127659;23;20037;-79
2021/07/21 00:34:12;;;;;;;21.10;11.85;;;;;;;15.39;81.67;102377.19;6127713;23;20010;-78
2021/07/21 00:36:38;;;;;;;19.83;11.13;;;;;;;15.37;82.01;102379.81;6127751;23;20006;-81
2021/07/21 00:39:04;;;;;;;21.30;11.68;;;;;;;15.37;81.55;102385.13;6129311;23;20006;-80
2021/07/21 00:42:09;;;;;;;19.65;11.52;;;;;;;15.36;81.45;102378.00;6103864;23;20002;-79
2021/07/21 00:45:14;;;;;;;20.67;10.85;;;;;;;15.34;81.66;102379.72;6129199;23;20085;-79
2021/07/21 00:47:39;;;;;;;21.33;11.40;;;;;;;15.30;81.56;102381.44;6129456;23;20018;-80
2021/07/21 00:50:25;;;;;;;20.90;10.98;;;;;;;15.29;82.18;102376.09;6129187;23;20018;-79
2021/07/21 00:52:51;;;;;;;21.42;11.20;;;;;;;15.30;81.96;102377.88;6129218;23;20076;-79
2021/07/21 00:55:17;;;;;;;20.17;9.82;;;;;;;15.30;81.98;102380.50;6102641;23;20081;-79
2021/07/21 00:58:03;;;;;;;22.33;10.82;;;;;;;15.32;82.10;102382.34;6128620;23;20014;-80
2021/07/21 01:00:29;;;;;;;20.27;11.07;;;;;;;15.33;82.26;102377.97;6128572;23;20002;-81
2021/07/21 01:02:55;;;;;;;21.73;10.82;;;;;;;15.29;82.35;102376.97;6103464;23;20017;-80
2021/07/21 01:05:29;;;;;;;21.40;12.05;;;;;;;15.25;82.48;102374.25;6129260;23;20013;-80
2021/07/21 01:07:55;;;;;;;18.00;10.25;;;;;;;15.21;82.55;102369.72;6129647;23;20425;-79
2021/07/21 01:11:00;;;;;;;22.27;11.43;;;;;;;15.12;83.37;102381.91;6129029;23;20033;-80
2021/07/21 01:13:31;;;;;;;20.90;10.48;;;;;;;15.03;83.80;102384.38;6128069;23;20350;-79
2021/07/21 01:16:21;;;;;;;20.50;10.43;;;;;;;14.98;83.75;102376.28;6128819;23;20129;-79
2021/07/21 01:19:24;;;;;;;20.88;10.57;;;;;;;14.90;84.26;102379.63;6127667;23;20022;-80
2021/07/21 01:22:44;;;;;;;19.60;10.50;;;;;;;14.83;84.23;102375.94;6126763;23;20018;-79
2021/07/21 01:25:14;;;;;;;24.45;11.93;;;;;;;14.77;84.65;102374.06;5983297;23;20071;-81
2021/07/21 01:27:47;;;;;;;24.60;11.38;;;;;;;14.74;84.93;102381.91;6102086;23;20025;-80
2021/07/21 01:30:15;;;;;;;27.17;11.90;;;;;;;14.68;85.04;102376.47;6128870;23;20013;-81
2021/07/21 01:32:45;;;;;;;24.77;11.05;;;;;;;14.66;84.72;102375.53;6129337;23;20025;-80
2021/07/21 01:35:53;;;;;;;25.65;12.32;;;;;;;14.64;85.01;102369.31;6129168;23;20002;-79
2021/07/21 01:38:26;;;;;;;22.85;11.95;;;;;;;14.61;85.14;102375.41;6128090;23;20017;-79
2021/07/21 01:41:32;;;;;;;25.15;11.32;;;;;;;14.58;85.31;102375.34;6128825;23;20002;-77
2021/07/21 01:44:02;;;;;;;24.90;10.90;;;;;;;14.54;85.67;102373.47;6128086;23;20014;-80
2021/07/21 01:46:52;;;;;;;28.25;13.15;;;;;;;14.49;85.63;102370.69;6128635;23;20028;-80
2021/07/21 01:49:57;;;;;;;21.67;11.43;;;;;;;14.46;86.13;102372.34;6127868;23;20014;-79
2021/07/21 01:52:48;;;;;;;23.63;11.55;;;;;;;14.41;86.22;102369.59;6128362;23;20010;-81
2021/07/21 01:55:16;;;;;;;25.48;12.43;;;;;;;14.38;86.32;102377.47;6129235;23;20005;-81
2021/07/21 01:58:02;;;;;;;24.55;11.77;;;;;;;14.32;86.32;102382.59;6129102;23;20010;-78
2021/07/21 02:00:29;;;;;;;23.65;12.38;;;;;;;14.31;85.93;102386.09;6128340;23;20022;-79
2021/07/21 02:02:56;;;;;;;25.20;12.02;;;;;;;14.33;86.10;102384.41;6129038;23;20012;-80
2021/07/21 02:05:23;;;;;;;24.55;11.57;;;;;;;14.35;86.07;102385.31;6128456;23;20005;-78
2021/07/21 02:07:52;;;;;;;24.67;12.35;;;;;;;14.39;86.08;102384.56;6128847;23;20055;-77
2021/07/21 02:10:21;;;;;;;29.88;14.55;;;;;;;14.46;86.05;102391.81;6103602;23;20017;-79
2021/07/21 02:12:58;;;;;;;27.73;13.18;;;;;;;14.50;85.81;102385.72;6129140;23;20006;-78
2021/07/21 02:15:26;;;;;;;25.83;14.30;;;;;;;14.54;85.99;102388.44;6128761;23;20385;-79
2021/07/21 02:18:13;;;;;;;30.02;13.80;;;;;;;14.53;85.79;102381.34;6102681;23;20017;-80
2021/07/21 02:20:39;;;;;;;25.13;13.60;;;;;;;14.51;85.32;102389.25;6128178;23;20013;-79
2021/07/21 02:23:04;;;;;;;30.02;13.85;;;;;;;14.48;85.76;102390.06;6128139;23;20013;-78
2021/07/21 02:25:34;;;;;;;27.85;13.35;;;;;;;14.43;85.53;102386.44;6128712;23;20085;-77
2021/07/21 02:28:00;;;;;;;28.90;13.07;;;;;;;14.39;85.47;102387.22;6102549;23;20006;-80
2021/07/21 02:30:26;;;;;;;25.58;13.32;;;;;;;14.34;85.60;102380.91;6128279;23;20017;-78
2021/07/21 02:33:14;;;;;;;26.33;13.52;;;;;;;14.32;85.67;102377.31;6128054;23;20116;-80
2021/07/21 02:35:39;;;;;;;28.85;12.80;;;;;;;14.32;85.79;102383.50;6128359;23;20005;-78
2021/07/21 02:38:05;;;;;;;21.85;12.63;;;;;;;14.28;86.22;102386.94;6102318;23;20006;-78
2021/07/21 02:40:31;;;;;;;24.65;12.43;;;;;;;14.23;86.69;102392.94;6128385;23;20018;-80
2021/07/21 02:43:17;;;;;;;25.42;12.48;;;;;;;14.18;86.02;102394.59;6102869;23;20018;-80
2021/07/21 02:45:42;;;;;;;30.90;14.32;;;;;;;14.12;86.45;102390.00;6128477;23;20006;-79
2021/07/21 02:48:08;;;;;;;29.15;14.00;;;;;;;14.13;86.52;102392.72;6128467;23;20005;-79
2021/07/21 02:50:56;;;;;;;26.95;13.02;;;;;;;14.13;87.58;102391.81;6127953;23;20421;-79
2021/07/21 02:53:49;;;;;;;31.92;13.82;;;;;;;14.13;87.64;102392.72;6128546;23;20010;-79
2021/07/21 02:56:38;;;;;;;30.95;13.68;;;;;;;14.13;87.90;102398.03;6128514;23;20010;-79
2021/07/21 02:59:29;;;;;;;30.30;14.05;;;;;;;14.12;87.96;102390.94;6127772;23;20010;-78
2021/07/21 03:02:14;;;;;;;30.55;14.15;;;;;;;14.12;88.10;102401.50;6127984;23;20013;-78
2021/07/21 03:04:41;;;;;;;29.38;13.98;;;;;;;14.11;87.78;102397.06;6126700;23;20010;-79
2021/07/21 03:07:08;;;;;;;33.58;14.95;;;;;;;14.10;88.10;102392.63;6127845;23;20018;-80
2021/07/21 03:09:35;;;;;;;27.02;14.35;;;;;;;14.11;88.14;102397.06;6127874;23;20014;-79
2021/07/21 03:12:04;;;;;;;30.23;14.23;;;;;;;14.12;88.13;102397.94;6127614;23;20480;-79
2021/07/21 03:14:51;;;;;;;31.02;15.05;;;;;;;14.11;87.87;102398.84;6102830;23;20014;-77
2021/07/21 03:17:37;;;;;;;33.63;14.98;;;;;;;14.09;87.96;102396.13;6128177;23;20394;-78
2021/07/21 03:20:24;;;;;;;30.73;14.13;;;;;;;14.09;88.04;102406.69;6101592;23;20013;-79
2021/07/21 03:22:52;;;;;;;29.83;14.82;;;;;;;14.08;87.96;102404.94;6127178;23;20433;-78
2021/07/21 03:25:21;;;;;;;28.05;13.50;;;;;;;14.02;88.33;102402.09;6127852;23;20080;-80
2021/07/21 03:28:09;;;;;;;32.83;13.68;;;;;;;13.98;88.27;102402.88;6128190;23;20033;-80
2021/07/21 03:30:36;;;;;;;31.10;13.48;;;;;;;13.93;88.01;102399.19;6125575;23;20460;-80
2021/07/21 03:33:05;;;;;;;29.23;13.52;;;;;;;13.92;87.71;102408.03;6127710;23;20010;-80
2021/07/21 03:35:51;;;;;;;33.38;14.30;;;;;;;13.90;87.91;102404.41;6101712;23;20017;-78
2021/07/21 03:38:22;;;;;;;29.65;14.50;;;;;;;13.88;87.94;102400.84;6127140;23;20017;-79
2021/07/21 03:40:50;;;;;;;33.08;15.75;;;;;;;13.87;88.63;102401.69;6127270;23;20010;-78
2021/07/21 03:43:36;;;;;;;34.80;15.80;;;;;;;13.85;88.63;102400.75;6127839;23;20088;-78
2021/07/21 03:46:02;;;;;;;37.40;15.13;;;;;;;13.81;88.68;102405.94;6126471;23;20014;-78
2021/07/21 03:48:28;;;;;;;32.80;16.20;;;;;;;13.76;88.91;102396.97;6127252;23;20013;-78
2021/07/21 03:50:59;;;;;;;33.25;15.73;;;;;;;13.72;88.76;102400.41;6127315;23;20333;-78
2021/07/21 03:53:26;;;;;;;34.80;15.15;;;;;;;13.69;88.94;102399.41;6127587;23;20038;-80
2021/07/21 03:56:11;;;;;;;33.38;17.83;;;;;;;13.63;89.03;102397.47;6077713;23;20068;-79
2021/07/21 03:59:00;;;;;;;36.42;15.93;;;;;;;13.60;89.30;102397.41;6126970;23;20101;-78
2021/07/21 04:01:26;;;;;;;37.55;17.15;;;;;;;13.59;89.49;102400.88;6127932;23;20329;-80
2021/07/21 04:03:53;;;;;;;35.17;15.68;;;;;;;13.57;89.55;102403.50;6127426;23;20006;-78
2021/07/21 04:06:20;;;;;;;37.58;15.85;;;;;;;13.57;89.74;102399.97;6127565;23;20029;-78
2021/07/21 04:08:48;;;;;;;38.10;16.17;;;;;;;13.58;89.58;102401.72;6127380;23;20012;-78
2021/07/21 04:11:14;;;;;;;38.03;16.30;;;;;;;13.58;89.69;102396.44;6127049;23;20010;-79
2021/07/21 04:14:07;;;;;;;32.03;15.95;;;;;;;13.61;89.69;102392.16;6127124;23;20073;-77
2021/07/21 04:16:53;;;;;;;36.45;15.65;;;;;;;13.64;89.59;102399.28;6128075;23;20010;-78
2021/07/21 04:19:20;;;;;;;36.53;16.77;;;;;;;13.67;89.50;102402.00;6127448;23;20002;-78
2021/07/21 04:22:05;;;;;;;43.78;17.60;;;;;;;13.69;89.40;102400.31;6127668;23;20014;-77
2021/07/21 04:25:10;;;;;;;32.88;15.90;;;;;;;13.73;89.34;102403.97;6127182;23;20010;-79
2021/07/21 04:27:41;;;;;;;29.90;14.55;;;;;;;13.76;89.06;102407.56;6126724;23;20034;-77
2021/07/21 04:30:08;;;;;;;32.40;14.43;;;;;;;13.79;88.56;102407.66;6127866;23;20010;-78
2021/07/21 04:32:35;;;;;;;32.65;14.98;;;;;;;13.85;88.67;102409.59;6127376;23;20453;-79
2021/07/21 04:35:03;;;;;;;32.70;14.48;;;;;;;13.93;88.76;102409.78;6127233;23;20013;-78
2021/07/21 04:37:49;;;;;;;33.00;15.25;;;;;;;14.01;88.38;102410.91;6127511;23;20335;-78
2021/07/21 04:40:35;;;;;;;32.42;14.75;;;;;;;14.06;88.13;102411.91;6128067;23;20021;-78
2021/07/21 04:43:00;;;;;;;31.60;15.30;;;;;;;14.14;88.37;102399.78;6128110;23;20020;-79
2021/07/21 04:45:26;;;;;;;28.00;13.93;;;;;;;14.23;88.38;102398.25;6127614;23;20081;-77
2021/07/21 04:47:53;;;;;;;31.73;14.02;;;;;;;14.33;88.67;102419.72;6127339;23;20006;-79
2021/07/21 04:50:21;;;;;;;29.65;14.23;;;;;;;14.45;88.74;102420.91;6127260;23;20006;-78
2021/07/21 04:52:48;;;;;;;26.02;13.77;;;;;;;14.57;88.31;102415.91;6126978;23;20018;-78
2021/07/21 04:55:14;;;;;;;29.15;14.50;;;;;;;14.71;87.95;102420.69;6127009;23;20064;-77
2021/07/21 04:57:42;;;;;;;32.65;16.15;;;;;;;14.80;87.69;102423.59;6127642;23;20481;-77
2021/07/21 05:00:08;;;;;;;35.42;16.95;;;;;;;14.90;87.42;102428.22;6126760;23;20337;-78
2021/07/21 05:02:34;;;;;;;34.50;18.52;;;;;;;15.04;87.54;102433.84;6126492;23;20430;-79
2021/07/21 05:04:59;;;;;;;31.23;15.68;;;;;;;15.12;86.95;102428.75;6127908;23;20002;-77
2021/07/21 05:07:25;;;;;;;31.80;16.83;;;;;;;15.21;86.54;102426.31;6127901;23;20006;-80
2021/07/21 05:09:51;;;;;;;32.15;16.70;;;;;;;15.34;86.72;102438.06;6127501;23;20010;-78
2021/07/21 05:12:16;;;;;;;28.25;15.98;;;;;;;15.45;86.45;102436.56;6127221;23;20020;-80
2021/07/21 05:15:01;;;;;;;26.23;14.57;;;;;;;15.62;86.26;102436.03;6126928;23;20006;-81
2021/07/21 05:17:27;;;;;;;27.58;14.82;;;;;;;15.67;85.04;102437.03;6127851;23;20018;-79
2021/07/21 05:19:52;;;;;;;29.38;14.82;;;;;;;15.75;84.92;102435.44;6127397;23;20438;-80
2021/07/21 05:22:18;;;;;;;28.95;15.02;;;;;;;15.87;84.67;102440.16;6127784;23;20501;-79
2021/07/21 05:24:43;;;;;;;27.52;14.82;;;;;;;15.99;83.98;102443.03;6129659;23;20021;-80
2021/07/21 05:27:30;;;;;;;29.60;14.15;;;;;;;16.21;83.38;102443.47;6128184;23;20330;-77
2021/07/21 05:29:55;;;;;;;28.25;13.85;;;;;;;16.37;83.02;102441.97;6128486;23;20060;-75
2021/07/21 05:32:20;;;;;;;24.77;14.25;;;;;;;16.55;82.40;102436.09;6103264;23;20006;-77
2021/07/21 05:34:46;;;;;;;28.30;15.55;;;;;;;16.75;81.79;102436.41;6128025;23;20456;-78
2021/07/21 05:37:11;;;;;;;26.30;14.40;;;;;;;17.03;79.43;102435.13;6129811;23;20042;-78
2021/07/21 05:39:37;;;;;;;26.63;13.95;;;;;;;17.27;78.16;102433.72;6129203;23;20137;-79
2021/07/21 05:42:02;;;;;;;23.67;14.30;;;;;;;17.47;78.21;102439.31;6129704;23;20017;-79
2021/07/21 05:44:47;;;;;;;26.23;14.65;;;;;;;17.73;76.95;102438.75;6129699;23;20480;-78
2021/07/21 05:47:13;;;;;;;23.38;14.73;;;;;;;17.93;74.87;102431.00;6129849;23;20026;-79
2021/07/21 05:49:39;;;;;;;25.77;14.85;;;;;;;18.29;75.84;102439.41;6129219;23;20032;-76
2021/07/21 05:52:24;;;;;;;20.75;13.88;;;;;;;18.67;72.34;102428.22;6129340;23;20385;-79
2021/07/21 05:54:50;;;;;;;25.83;14.38;;;;;;;18.91;71.95;102437.31;6128538;23;20005;-76
2021/07/21 05:57:35;;;;;;;21.75;14.40;;;;;;;19.23;69.86;102436.63;6103272;23;20122;-75
2021/07/21 06:00:00;;;;;;;28.70;14.80;;;;;;;19.58;68.25;102433.28;6129009;23;20002;-80
2021/07/21 06:02:47;;;;;;;23.65;14.15;;;;;;;19.76;68.57;102437.78;6129754;23;20201;-77
2021/07/21 06:05:12;;;;;;;25.83;15.40;;;;;;;20.18;64.50;102429.06;6128583;23;20033;-80
2021/07/21 06:11:47;;;;;;;22.55;14.75;;;;;;;20.95;64.80;102438.91;6054734;23;20013;-77
2021/07/21 06:14:13;;;;;;;23.60;15.73;;;;;;;21.43;63.52;102443.25;6119499;23;20018;-80
2021/07/21 06:16:38;;;;;;;23.85;13.40;;;;;;;21.87;59.15;102434.19;6102452;23;20504;-78
2021/07/21 06:19:04;;;;;;;23.77;13.95;;;;;;;22.24;59.19;102434.84;6126903;23;20005;-79
2021/07/21 06:21:30;;;;;;;22.92;13.25;;;;;;;22.22;59.27;102442.00;6126159;23;20028;-79
2021/07/21 06:23:55;;;;;;;21.10;13.20;;;;;;;22.48;58.89;102440.97;6127483;23;20017;-79
2021/07/21 06:26:23;;;;;;;20.98;13.45;;;;;;;22.46;59.68;102437.38;6128820;23;20327;-76
2021/07/21 06:29:08;;;;;;;21.35;13.35;;;;;;;22.88;55.83;102443.31;6102410;23;20016;-78
2021/07/21 06:31:34;;;;;;;17.63;12.93;;;;;;;23.29;54.89;102433.09;6127775;23;20033;-79
2021/07/21 06:33:59;;;;;;;20.90;13.05;;;;;;;23.35;54.83;102437.50;6127763;23;20005;-77
2021/07/21 06:36:25;;;;;;;19.67;11.57;;;;;;;23.32;53.33;102441.09;6127118;23;20398;-80
2021/07/21 06:38:50;;;;;;;17.80;12.13;;;;;;;23.54;52.91;102444.41;6128841;23;20010;-78
2021/07/21 06:41:16;;;;;;;18.73;12.50;;;;;;;23.54;53.17;102451.59;6100277;23;20009;-78
2021/07/21 06:44:01;;;;;;;17.23;12.18;;;;;;;23.67;52.15;102450.53;6101194;23;20037;-80
2021/07/21 06:46:30;;;;;;;21.00;12.77;;;;;;;23.90;52.08;102455.66;6127488;23;20069;-79
2021/07/21 06:48:55;;;;;;;25.98;13.73;;;;;;;24.03;52.54;102450.97;6126988;23;20010;-79
2021/07/21 06:51:21;;;;;;;19.70;12.73;;;;;;;23.97;52.96;102467.22;6127424;23;20012;-78
2021/07/21 06:53:46;;;;;;;19.92;12.95;;;;;;;23.98;54.06;102473.47;6126229;23;20018;-78
2021/07/21 06:56:13;;;;;;;21.83;13.48;;;;;;;24.50;52.82;102470.00;6125936;23;20033;-78
2021/07/21 06:58:58;;;;;;;27.35;15.00;;;;;;;24.85;49.89;102457.81;6101408;23;20014;-79
2021/07/21 07:01:26;;;;;;;23.70;13.35;;;;;;;24.72;50.67;102467.00;6127076;23;20028;-77
2021/07/21 07:03:52;;;;;;;21.48;11.60;;;;;;;24.22;48.79;102464.16;6127132;23;20008;-79
2021/07/21 07:06:17;;;;;;;20.27;12.38;;;;;;;24.45;48.44;102461.13;6126628;23;20034;-79
2021/07/21 07:09:01;;;;;;;18.95;10.77;;;;;;;24.51;48.42;102465.50;6127368;23;20020;-80
2021/07/21 07:11:26;;;;;;;16.48;10.77;;;;;;;24.68;46.73;102457.22;6127173;23;20016;-78
2021/07/21 07:13:51;;;;;;;17.10;10.77;;;;;;;24.78;46.83;102457.94;6125833;23;20029;-77
2021/07/21 07:16:17;;;;;;;19.17;11.93;;;;;;;24.73;47.28;102466.09;6127570;23;20001;-76
2021/07/21 07:18:42;;;;;;;18.17;11.63;;;;;;;24.82;46.23;102460.53;6127772;23;20001;-78
2021/07/21 07:21:08;;;;;;;20.85;12.30;;;;;;;24.87;47.51;102463.16;6125383;23;20016;-80
2021/07/21 07:23:34;;;;;;;17.80;9.40;;;;;;;25.03;46.70;102461.09;6126390;23;20021;-79
2021/07/21 07:25:59;;;;;;;16.80;9.40;;;;;;;24.83;48.07;102467.69;6101475;23;20010;-79
2021/07/21 07:28:24;;;;;;;20.50;10.00;;;;;;;25.02;45.24;102468.25;6126693;23;20056;-79
2021/07/21 07:30:50;;;;;;;14.05;10.13;;;;;;;25.12;45.31;102468.09;6126790;23;20002;-79
2021/07/21 07:33:15;;;;;;;14.93;9.80;;;;;;;24.90;45.43;102469.34;6126442;23;20018;-79
2021/07/21 07:35:41;;;;;;;16.35;10.00;;;;;;;24.52;46.03;102475.38;6125681;23;20005;-80
2021/07/21 07:38:26;;;;;;;14.50;10.60;;;;;;;24.22;48.53;102486.56;6126781;23;20460;-78
2021/07/21 07:40:53;;;;;;;13.65;10.45;;;;;;;23.87;49.06;102485.22;6127457;23;20057;-79
2021/07/21 07:43:19;;;;;;;15.18;10.07;;;;;;;24.04;48.14;102484.16;6126901;23;20022;-79
2021/07/21 07:45:44;;;;;;;13.48;10.18;;;;;;;24.18;48.10;102487.53;6126089;23;20009;-80
2021/07/21 07:48:10;;;;;;;18.40;9.57;;;;;;;24.20;52.32;102499.16;6127630;23;20492;-76
2021/07/21 07:50:35;;;;;;;15.63;10.18;;;;;;;24.54;45.38;102485.19;6127546;23;20006;-78
2021/07/21 07:53:01;;;;;;;17.27;9.68;;;;;;;24.62;46.03;102471.66;6126469;23;20092;-80
2021/07/21 07:55:27;;;;;;;13.13;9.13;;;;;;;24.52;45.81;102478.06;6128171;23;20064;-78
2021/07/21 07:57:52;;;;;;;14.23;9.93;;;;;;;24.28;45.25;102471.25;6100351;23;20088;-79
2021/07/21 08:00:38;;;;;;;21.13;9.38;;;;;;;24.06;47.38;102483.22;6127187;23;20410;-78
2021/07/21 08:03:03;;;;;;;13.27;8.75;;;;;;;24.30;45.60;102477.50;6127274;23;20030;-78
2021/07/21 08:05:29;;;;;;;15.93;9.32;;;;;;;24.44;45.49;102474.59;6127063;23;20006;-78
2021/07/21 08:07:56;;;;;;;14.68;8.88;;;;;;;24.42;46.64;102477.31;6126998;23;20016;-76
2021/07/21 08:10:27;;;;;;;12.65;8.73;;;;;;;24.47;46.19;102486.22;6127134;23;20006;-78
2021/07/21 08:12:52;;;;;;;13.80;10.23;;;;;;;24.65;44.15;102473.38;6099162;23;20319;-79
2021/07/21 08:15:18;;;;;;;14.27;8.95;;;;;;;24.74;45.64;102467.84;6127540;23;20005;-78
2021/07/21 08:18:03;;;;;;;14.77;9.93;;;;;;;24.67;44.94;102468.88;6127411;23;20063;-77
2021/07/21 08:20:48;;;;;;;15.75;10.00;;;;;;;24.46;46.39;102478.16;6126988;23;20014;-78
2021/07/21 08:23:15;;;;;;;16.38;9.95;;;;;;;24.44;46.20;102472.78;6126779;23;20053;-76
2021/07/21 08:25:43;;;;;;;15.00;8.82;;;;;;;24.44;47.33;102483.56;6127049;23;20002;-78
2021/07/21 08:28:09;;;;;;;16.67;9.20;;;;;;;24.96;45.77;102475.56;6127924;23;20010;-79
2021/07/21 08:30:34;;;;;;;17.20;8.93;;;;;;;25.08;45.46;102478.94;6126599;23;20009;-78
2021/07/21 08:33:00;;;;;;;12.88;8.60;;;;;;;25.12;45.91;102479.75;6127480;23;20077;-77
2021/07/21 08:35:28;;;;;;;11.98;8.23;;;;;;;25.29;42.67;102478.56;6128230;23;20010;-77
2021/07/21 08:37:55;;;;;;;13.75;8.57;;;;;;;25.46;43.50;102479.16;6127302;23;20010;-80
2021/07/21 08:40:23;;;;;;;17.63;8.38;;;;;;;25.70;43.39;102468.78;6128160;23;20024;-77
2021/07/21 08:43:10;;;;;;;15.85;8.25;;;;;;;25.72;42.03;102470.53;6126736;23;20002;-78
2021/07/21 08:45:55;;;;;;;11.90;7.47;;;;;;;25.68;42.59;102473.31;6127716;23;20010;-77
2021/07/21 08:48:21;;;;;;;14.52;8.45;;;;;;;25.47;41.64;102472.81;6125585;23;20010;-79
2021/07/21 08:51:09;;;;;;;13.55;8.10;;;;;;;25.83;42.80;102474.78;6126223;23;20014;-80
2021/07/21 08:54:14;;;;;;;10.68;8.07;;;;;;;26.03;40.09;102469.00;6127282;23;20129;-77
2021/07/21 08:56:40;;;;;;;13.25;7.97;;;;;;;26.22;40.59;102469.44;6125315;23;20337;-77
2021/07/21 08:59:05;;;;;;;11.65;8.60;;;;;;;26.09;39.43;102463.47;6127354;23;20010;-79
2021/07/21 09:01:35;;;;;;;12.70;7.63;;;;;;;26.58;40.32;102464.97;6103045;23;20002;-79
2021/07/21 09:04:01;;;;;;;11.45;7.70;;;;;;;27.09;40.24;102468.22;6128429;23;20018;-78
2021/07/21 09:06:26;;;;;;;15.40;8.15;;;;;;;27.62;39.02;102469.47;6128994;23;20084;-76
2021/07/21 09:08:52;;;;;;;15.98;8.73;;;;;;;27.92;36.58;102462.25;6127361;23;20013;-78
2021/07/21 09:11:18;;;;;;;15.35;9.38;;;;;;;27.81;37.17;102468.00;6127541;23;20014;-78
2021/07/21 09:13:43;;;;;;;12.02;8.40;;;;;;;28.18;36.79;102464.16;6127948;23;20377;-79
2021/07/21 09:16:09;;;;;;;16.17;8.20;;;;;;;28.47;37.81;102472.28;6128822;23;20006;-79
2021/07/21 09:19:08;;;;;;;12.60;7.65;;;;;;;28.63;34.82;102467.25;6128152;23;20006;-80
2021/07/21 09:21:34;;;;;;;14.80;8.20;;;;;;;28.90;34.77;102460.91;6124987;23;20060;-78
2021/07/21 09:23:59;;;;;;;13.00;8.52;;;;;;;29.51;33.49;102466.91;6127059;23;20421;-78
2021/07/21 09:26:24;;;;;;;12.77;8.38;;;;;;;29.86;33.38;102462.84;6128247;23;20441;-76
2021/07/21 09:29:33;;;;;;;14.80;8.07;;;;;;;30.09;31.99;102458.34;6128400;23;20002;-77
2021/07/21 09:32:00;;;;;;;11.57;8.15;;;;;;;29.66;32.13;102462.72;6127401;23;20249;-77
2021/07/21 09:34:26;;;;;;;11.82;8.73;;;;;;;29.92;33.80;102467.16;6126935;23;20447;-78
2021/07/21 09:37:05;;;;;;;16.33;9.48;;;;;;;29.39;36.05;102465.53;6127807;23;20025;-79
2021/07/21 09:39:36;;;;;;;19.90;9.98;;;;;;;28.85;33.45;102462.88;6126984;23;20006;-80
2021/07/21 09:42:22;;;;;;;13.00;8.57;;;;;;;29.31;37.39;102470.34;6126862;23;20002;-78
2021/07/21 09:44:48;;;;;;;20.08;10.15;;;;;;;29.96;32.27;102454.34;6127777;23;20138;-79
2021/07/21 09:47:39;;;;;;;13.60;8.80;;;;;;;29.79;34.00;102450.44;6128450;23;20433;-77
2021/07/21 09:50:35;;;;;;;13.90;9.25;;;;;;;29.57;35.14;102455.81;6128003;23;20496;-80
2021/07/21 09:53:06;;;;;;;15.93;9.52;;;;;;;30.35;33.31;102459.13;6127632;23;20018;-78
2021/07/21 09:55:53;;;;;;;15.73;9.35;;;;;;;29.97;34.01;102458.84;6126825;23;20023;-81
2021/07/21 09:58:23;;;;;;;18.15;9.95;;;;;;;30.35;32.10;102449.13;6126824;23;20013;-79
2021/07/21 10:00:49;;;;;;;13.93;9.68;;;;;;;29.24;32.84;102451.56;6126221;23;20006;-78
2021/07/21 10:03:35;;;;;;;15.50;9.88;;;;;;;29.10;32.70;102449.34;6126243;23;20071;-78
2021/07/21 10:06:11;;;;;;;13.57;8.82;;;;;;;29.11;36.07;102458.34;6126774;23;20009;-78
2021/07/21 10:08:48;;;;;;;17.10;9.70;;;;;;;29.03;32.65;102446.91;6127289;23;20010;-78
2021/07/21 10:11:33;;;;;;;13.32;8.40;;;;;;;30.19;31.73;102448.88;6127900;23;20036;-77
2021/07/21 10:14:01;;;;;;;15.85;8.35;;;;;;;30.34;33.99;102460.06;6128749;23;20064;-79
2021/07/21 10:16:43;;;;;;;13.68;8.80;;;;;;;30.94;32.20;102458.41;6129054;23;20013;-79
2021/07/21 10:19:35;;;;;;;11.68;8.65;;;;;;;30.89;32.05;102456.84;6128634;23;20013;-81
2021/07/21 10:22:03;;;;;;;14.30;8.52;;;;;;;31.36;30.96;102452.97;6127951;23;20014;-80
2021/07/21 10:24:34;;;;;;;16.20;8.90;;;;;;;31.82;29.19;102452.69;6102430;23;20049;-79
2021/07/21 10:27:01;;;;;;;13.60;9.63;;;;;;;32.08;30.71;102446.84;6128834;23;20006;-79
2021/07/21 10:29:27;;;;;;;13.02;8.90;;;;;;;32.12;30.44;102455.72;6127796;23;20010;-81
2021/07/21 10:31:53;;;;;;;16.38;9.82;;;;;;;31.14;31.68;102451.22;6127996;23;20366;-79
2021/07/21 10:34:40;;;;;;;13.27;9.32;;;;;;;30.69;30.18;102435.97;6124499;23;20012;-78
2021/07/21 10:37:05;;;;;;;13.65;8.65;;;;;;;31.59;30.08;102449.16;6126543;23;20061;-79
2021/07/21 10:39:58;;;;;;;16.73;9.70;;;;;;;30.86;31.25;102449.72;6126451;23;20010;-79
2021/07/21 10:42:24;;;;;;;;;;;;;;;31.34;30.48;102449.44;6127816;23;20021;-78
2021/07/21 10:45:15;;;;;;;15.32;10.10;;;;;;;31.64;29.23;102440.84;6126170;23;20291;-78
2021/07/21 10:47:46;;;;;;;15.70;9.75;;;;;;;31.35;29.40;102440.31;6126317;23;20056;-79
2021/07/21 10:59:40;;;;;;;13.05;9.43;;;;;;;31.15;32.10;102439.41;6122455;23;20040;-80
2021/07/21 11:02:08;;;;;;;13.20;9.55;;;;;;;31.01;30.36;102430.94;6120890;23;20014;-79
2021/07/21 11:05:00;;;;;;;15.15;9.40;;;;;;;30.35;38.88;102443.69;6122646;23;20017;-77
2021/07/21 11:08:07;;;;;;;17.67;11.85;;;;;;;29.19;34.85;102439.09;6123705;23;20033;-79
2021/07/21 11:10:45;;;;;;;21.50;10.52;;;;;;;28.35;37.37;102446.50;6123322;23;20005;-77
2021/07/21 11:13:34;;;;;;;20.25;10.05;;;;;;;27.64;40.63;102444.16;6123119;23;20018;-77
2021/07/21 11:16:01;;;;;;;14.05;10.65;;;;;;;26.86;39.65;102445.41;6124008;23;20010;-78
2021/07/21 11:18:28;;;;;;;18.55;11.82;;;;;;;27.20;37.67;102439.09;6123948;23;20341;-78
2021/07/21 11:21:23;;;;;;;17.20;11.30;;;;;;;28.56;39.01;102448.50;6123691;23;20010;-80
2021/07/21 11:24:00;;;;;;;20.33;11.20;;;;;;;29.39;34.21;102438.41;6122645;23;20045;-79
2021/07/21 11:26:31;;;;;;;18.75;12.10;;;;;;;30.25;33.56;102437.75;6123150;23;20060;-78
2021/07/21 11:29:27;;;;;;;17.02;11.18;;;;;;;30.73;33.12;102433.06;6121237;23;20461;-79
2021/07/21 11:31:52;;;;;;;18.25;10.93;;;;;;;31.01;32.09;102437.28;6122815;23;20072;-79
2021/07/21 11:34:35;;;;;;;17.40;10.38;;;;;;;31.56;34.33;102442.03;6123462;23;20020;-78
2021/07/21 11:37:26;;;;;;;;;;;;;;;31.31;31.77;102434.16;6120508;23;20081;-78
2021/07/21 11:40:13;;;;;;;16.65;10.10;;;;;;;31.65;29.54;102429.88;6121383;23;19913;-79
2021/07/21 11:42:39;;;;;;;20.85;13.02;;;;;;;29.33;32.65;102435.91;6100864;23;20013;-79
2021/07/21 11:45:05;;;;;;;15.40;10.88;;;;;;;29.93;33.68;102442.66;6122619;23;20010;-79
2021/07/21 11:47:56;;;;;;;14.40;11.60;;;;;;;30.41;33.26;102432.59;6122778;23;20085;-80
2021/07/21 11:50:47;;;;;;;19.92;12.50;;;;;;;30.48;32.56;102433.25;6123080;23;20025;-78
2021/07/21 11:53:12;;;;;;;16.33;11.00;;;;;;;30.93;34.26;102431.31;6122522;23;20045;-79
2021/07/21 11:55:58;;;;;;;21.13;12.60;;;;;;;29.96;32.97;102427.22;6096639;23;20013;-80
2021/07/21 11:58:23;;;;;;;16.38;10.80;;;;;;;28.61;38.12;102442.94;6122866;23;20132;-80
2021/07/21 12:01:09;;;;;;;15.32;11.90;;;;;;;28.47;36.13;102434.38;6122893;23;20026;-81